sensor_id;sensor_type;location;lat;lon;timestamp;temperature;humidity
22161;DHT22;49035;48.812;11.762;2023-05-31T00:01:42;9.80;88.10
22161;DHT22;49035;48.812;11.762;2023-05-31T00:04:07;9.60;89.20
22161;DHT22;49035;48.812;11.762;2023-05-31T00:06:33;9.50;90.00
22161;DHT22;49035;48.812;11.762;2023-05-31T00:08:59;9.40;90.10
22161;DHT22;49035;48.812;11.762;2023-05-31T00:11:24;9.30;90.40
22161;DHT22;49035;48.812;11.762;2023-05-31T00:13:52;9.30;91.30
22161;DHT22;49035;48.812;11.762;2023-05-31T00:16:18;9.20;91.60
22161;DHT22;49035;48.812;11.762;2023-05-31T00:18:43;9.20;93.10
22161;DHT22;49035;48.812;11.762;2023-05-31T00:21:09;9.10;94.10
22161;DHT22;49035;48.812;11.762;2023-05-31T00:23:35;9.10;93.90
22161;DHT22;49035;48.812;11.762;2023-05-31T00:26:00;9.00;93.90
22161;DHT22;49035;48.812;11.762;2023-05-31T00:28:26;9.00;94.10
22161;DHT22;49035;48.812;11.762;2023-05-31T00:30:52;9.00;94.20
22161;DHT22;49035;48.812;11.762;2023-05-31T00:33:17;9.10;94.60
22161;DHT22;49035;48.812;11.762;2023-05-31T00:35:43;9.10;94.20
22161;DHT22;49035;48.812;11.762;2023-05-31T00:38:08;9.10;94.60
22161;DHT22;49035;48.812;11.762;2023-05-31T00:40:34;9.20;94.60
22161;DHT22;49035;48.812;11.762;2023-05-31T00:43:00;9.20;94.90
22161;DHT22;49035;48.812;11.762;2023-05-31T00:45:26;9.20;95.10
22161;DHT22;49035;48.812;11.762;2023-05-31T00:47:54;9.20;94.70
22161;DHT22;49035;48.812;11.762;2023-05-31T00:50:20;9.20;95.20
22161;DHT22;49035;48.812;11.762;2023-05-31T00:52:48;9.30;94.70
22161;DHT22;49035;48.812;11.762;2023-05-31T00:55:14;9.40;93.80
22161;DHT22;49035;48.812;11.762;2023-05-31T00:57:40;9.50;94.00
22161;DHT22;49035;48.812;11.762;2023-05-31T01:00:07;9.50;93.50
22161;DHT22;49035;48.812;11.762;2023-05-31T01:02:34;9.50;94.20
22161;DHT22;49035;48.812;11.762;2023-05-31T01:05:00;9.40;94.40
22161;DHT22;49035;48.812;11.762;2023-05-31T01:07:26;9.50;94.10
22161;DHT22;49035;48.812;11.762;2023-05-31T01:09:53;9.40;94.10
22161;DHT22;49035;48.812;11.762;2023-05-31T01:15:07;9.40;94.90
22161;DHT22;49035;48.812;11.762;2023-05-31T01:17:59;9.30;95.50
22161;DHT22;49035;48.812;11.762;2023-05-31T01:20:31;9.20;95.80
22161;DHT22;49035;48.812;11.762;2023-05-31T01:25:57;9.10;98.20
22161;DHT22;49035;48.812;11.762;2023-05-31T01:28:25;8.90;99.40
22161;DHT22;49035;48.812;11.762;2023-05-31T01:30:53;8.80;99.90
22161;DHT22;49035;48.812;11.762;2023-05-31T01:33:19;8.70;99.90
22161;DHT22;49035;48.812;11.762;2023-05-31T01:35:45;8.50;99.90
22161;DHT22;49035;48.812;11.762;2023-05-31T01:38:11;8.40;99.90
22161;DHT22;49035;48.812;11.762;2023-05-31T01:40:37;8.20;99.90
22161;DHT22;49035;48.812;11.762;2023-05-31T01:43:04;8.00;99.90
22161;DHT22;49035;48.812;11.762;2023-05-31T01:45:30;7.90;99.90
22161;DHT22;49035;48.812;11.762;2023-05-31T01:48:01;7.70;99.90
22161;DHT22;49035;48.812;11.762;2023-05-31T01:50:28;7.60;99.90
22161;DHT22;49035;48.812;11.762;2023-05-31T01:52:53;7.50;99.90
22161;DHT22;49035;48.812;11.762;2023-05-31T01:55:19;7.50;99.90
22161;DHT22;49035;48.812;11.762;2023-05-31T01:57:46;7.50;99.90
22161;DHT22;49035;48.812;11.762;2023-05-31T02:00:12;7.50;99.90
22161;DHT22;49035;48.812;11.762;2023-05-31T02:02:44;7.50;99.90
22161;DHT22;49035;48.812;11.762;2023-05-31T02:05:11;7.50;99.90
22161;DHT22;49035;48.812;11.762;2023-05-31T02:07:42;7.50;99.90
22161;DHT22;49035;48.812;11.762;2023-05-31T02:10:09;7.40;99.90
22161;DHT22;49035;48.812;11.762;2023-05-31T02:12:35;7.30;99.90
22161;DHT22;49035;48.812;11.762;2023-05-31T02:15:00;7.30;99.90
22161;DHT22;49035;48.812;11.762;2023-05-31T02:17:27;7.20;99.90
22161;DHT22;49035;48.812;11.762;2023-05-31T02:19:54;7.00;99.90
22161;DHT22;49035;48.812;11.762;2023-05-31T02:22:20;7.00;99.90
22161;DHT22;49035;48.812;11.762;2023-05-31T02:24:46;6.90;99.90
22161;DHT22;49035;48.812;11.762;2023-05-31T02:27:13;6.90;99.90
22161;DHT22;49035;48.812;11.762;2023-05-31T02:29:39;7.00;99.90
22161;DHT22;49035;48.812;11.762;2023-05-31T02:32:04;6.80;99.90
22161;DHT22;49035;48.812;11.762;2023-05-31T02:34:30;6.70;99.90
22161;DHT22;49035;48.812;11.762;2023-05-31T02:36:57;6.60;99.90
22161;DHT22;49035;48.812;11.762;2023-05-31T02:39:23;6.60;99.90
22161;DHT22;49035;48.812;11.762;2023-05-31T02:41:49;6.50;99.90
22161;DHT22;49035;48.812;11.762;2023-05-31T02:44:15;6.50;99.90
22161;DHT22;49035;48.812;11.762;2023-05-31T02:46:40;6.50;99.90
22161;DHT22;49035;48.812;11.762;2023-05-31T02:49:06;6.40;99.90
22161;DHT22;49035;48.812;11.762;2023-05-31T02:51:32;6.40;99.90
22161;DHT22;49035;48.812;11.762;2023-05-31T02:53:57;6.40;99.90
22161;DHT22;49035;48.812;11.762;2023-05-31T02:56:23;6.50;99.90
22161;DHT22;49035;48.812;11.762;2023-05-31T02:58:49;6.50;99.90
22161;DHT22;49035;48.812;11.762;2023-05-31T03:01:14;6.60;99.90
22161;DHT22;49035;48.812;11.762;2023-05-31T03:03:40;6.60;99.90
22161;DHT22;49035;48.812;11.762;2023-05-31T03:06:06;6.60;99.90
22161;DHT22;49035;48.812;11.762;2023-05-31T03:08:31;6.70;99.90
22161;DHT22;49035;48.812;11.762;2023-05-31T03:10:57;6.70;99.90
22161;DHT22;49035;48.812;11.762;2023-05-31T03:13:23;6.80;99.90
22161;DHT22;49035;48.812;11.762;2023-05-31T03:15:48;6.80;99.90
22161;DHT22;49035;48.812;11.762;2023-05-31T03:18:14;6.80;99.90
22161;DHT22;49035;48.812;11.762;2023-05-31T03:20:40;6.80;99.90
22161;DHT22;49035;48.812;11.762;2023-05-31T03:23:05;6.70;99.90
22161;DHT22;49035;48.812;11.762;2023-05-31T03:25:32;6.70;99.90
22161;DHT22;49035;48.812;11.762;2023-05-31T03:27:58;6.70;99.90
22161;DHT22;49035;48.812;11.762;2023-05-31T03:30:24;6.70;99.90
22161;DHT22;49035;48.812;11.762;2023-05-31T03:32:50;6.70;99.90
22161;DHT22;49035;48.812;11.762;2023-05-31T03:35:16;6.80;99.90
22161;DHT22;49035;48.812;11.762;2023-05-31T03:37:42;6.80;99.90
22161;DHT22;49035;48.812;11.762;2023-05-31T03:40:08;7.00;99.90
22161;DHT22;49035;48.812;11.762;2023-05-31T03:42:34;7.30;99.90
22161;DHT22;49035;48.812;11.762;2023-05-31T03:45:00;7.30;99.90
22161;DHT22;49035;48.812;11.762;2023-05-31T03:47:26;7.30;99.90
22161;DHT22;49035;48.812;11.762;2023-05-31T03:49:51;7.30;99.90
22161;DHT22;49035;48.812;11.762;2023-05-31T03:52:17;7.30;99.90
22161;DHT22;49035;48.812;11.762;2023-05-31T03:54:43;7.40;99.90
22161;DHT22;49035;48.812;11.762;2023-05-31T03:57:08;7.40;99.90
22161;DHT22;49035;48.812;11.762;2023-05-31T03:59:34;7.50;99.90
22161;DHT22;49035;48.812;11.762;2023-05-31T04:02:00;7.60;99.90
22161;DHT22;49035;48.812;11.762;2023-05-31T04:04:25;7.70;99.90
22161;DHT22;49035;48.812;11.762;2023-05-31T04:06:52;7.90;99.90
22161;DHT22;49035;48.812;11.762;2023-05-31T04:09:17;8.00;99.90
22161;DHT22;49035;48.812;11.762;2023-05-31T04:11:43;8.50;99.90
22161;DHT22;49035;48.812;11.762;2023-05-31T04:14:09;9.30;99.90
22161;DHT22;49035;48.812;11.762;2023-05-31T04:16:34;10.20;99.90
22161;DHT22;49035;48.812;11.762;2023-05-31T04:19:00;11.00;99.90
22161;DHT22;49035;48.812;11.762;2023-05-31T04:21:25;11.70;99.90
22161;DHT22;49035;48.812;11.762;2023-05-31T04:23:52;12.60;99.90
22161;DHT22;49035;48.812;11.762;2023-05-31T04:26:17;13.20;97.70
22161;DHT22;49035;48.812;11.762;2023-05-31T04:28:43;13.80;94.80
22161;DHT22;49035;48.812;11.762;2023-05-31T04:31:09;14.40;91.90
22161;DHT22;49035;48.812;11.762;2023-05-31T04:33:36;15.00;92.50
22161;DHT22;49035;48.812;11.762;2023-05-31T04:36:03;15.50;91.40
22161;DHT22;49035;48.812;11.762;2023-05-31T04:38:30;15.90;85.90
22161;DHT22;49035;48.812;11.762;2023-05-31T04:40:58;16.30;83.20
22161;DHT22;49035;48.812;11.762;2023-05-31T04:43:25;17.00;79.50
22161;DHT22;49035;48.812;11.762;2023-05-31T04:45:54;17.40;75.60
22161;DHT22;49035;48.812;11.762;2023-05-31T04:48:21;17.60;74.50
22161;DHT22;49035;48.812;11.762;2023-05-31T04:50:47;17.80;71.80
22161;DHT22;49035;48.812;11.762;2023-05-31T04:53:14;18.00;69.90
22161;DHT22;49035;48.812;11.762;2023-05-31T04:55:40;18.10;70.30
22161;DHT22;49035;48.812;11.762;2023-05-31T04:58:05;18.20;70.50
22161;DHT22;49035;48.812;11.762;2023-05-31T05:00:33;18.60;68.00
22161;DHT22;49035;48.812;11.762;2023-05-31T05:03:00;18.70;67.30
22161;DHT22;49035;48.812;11.762;2023-05-31T05:05:26;18.70;65.10
22161;DHT22;49035;48.812;11.762;2023-05-31T05:07:51;18.90;66.00
22161;DHT22;49035;48.812;11.762;2023-05-31T05:10:17;18.80;68.70
22161;DHT22;49035;48.812;11.762;2023-05-31T05:12:42;19.10;66.50
22161;DHT22;49035;48.812;11.762;2023-05-31T05:15:08;19.20;67.20
22161;DHT22;49035;48.812;11.762;2023-05-31T05:17:35;19.40;65.00
22161;DHT22;49035;48.812;11.762;2023-05-31T05:20:02;19.50;63.30
22161;DHT22;49035;48.812;11.762;2023-05-31T05:22:30;19.80;66.00
22161;DHT22;49035;48.812;11.762;2023-05-31T05:24:56;20.20;63.80
22161;DHT22;49035;48.812;11.762;2023-05-31T05:27:22;20.40;62.50
22161;DHT22;49035;48.812;11.762;2023-05-31T05:29:47;20.50;59.50
22161;DHT22;49035;48.812;11.762;2023-05-31T05:32:13;20.80;57.80
22161;DHT22;49035;48.812;11.762;2023-05-31T05:34:39;20.30;58.20
22161;DHT22;49035;48.812;11.762;2023-05-31T05:37:04;20.20;58.00
22161;DHT22;49035;48.812;11.762;2023-05-31T05:39:31;20.00;59.80
22161;DHT22;49035;48.812;11.762;2023-05-31T05:41:56;19.70;60.60
22161;DHT22;49035;48.812;11.762;2023-05-31T05:44:22;19.90;60.60
22161;DHT22;49035;48.812;11.762;2023-05-31T05:46:48;20.40;60.70
22161;DHT22;49035;48.812;11.762;2023-05-31T05:49:13;20.50;58.70
22161;DHT22;49035;48.812;11.762;2023-05-31T05:51:39;20.60;57.80
22161;DHT22;49035;48.812;11.762;2023-05-31T05:54:04;20.80;58.30
22161;DHT22;49035;48.812;11.762;2023-05-31T05:56:31;21.00;59.70
22161;DHT22;49035;48.812;11.762;2023-05-31T05:58:56;21.50;56.80
22161;DHT22;49035;48.812;11.762;2023-05-31T06:01:22;21.90;55.60
22161;DHT22;49035;48.812;11.762;2023-05-31T06:03:52;22.10;54.80
22161;DHT22;49035;48.812;11.762;2023-05-31T06:06:18;21.90;54.10
22161;DHT22;49035;48.812;11.762;2023-05-31T06:08:45;22.20;55.00
22161;DHT22;49035;48.812;11.762;2023-05-31T06:11:11;22.50;55.50
22161;DHT22;49035;48.812;11.762;2023-05-31T06:13:37;22.50;52.10
22161;DHT22;49035;48.812;11.762;2023-05-31T06:16:04;22.80;55.80
22161;DHT22;49035;48.812;11.762;2023-05-31T06:18:30;23.20;55.20
22161;DHT22;49035;48.812;11.762;2023-05-31T06:20:56;23.10;51.00
22161;DHT22;49035;48.812;11.762;2023-05-31T06:23:22;22.90;52.90
22161;DHT22;49035;48.812;11.762;2023-05-31T06:25:47;22.50;52.00
22161;DHT22;49035;48.812;11.762;2023-05-31T06:28:13;22.30;52.90
22161;DHT22;49035;48.812;11.762;2023-05-31T06:30:39;22.10;54.00
22161;DHT22;49035;48.812;11.762;2023-05-31T06:33:04;22.00;56.00
22161;DHT22;49035;48.812;11.762;2023-05-31T06:35:30;22.20;55.90
22161;DHT22;49035;48.812;11.762;2023-05-31T06:37:55;22.60;54.80
22161;DHT22;49035;48.812;11.762;2023-05-31T06:40:21;23.10;53.20
22161;DHT22;49035;48.812;11.762;2023-05-31T06:42:47;23.50;52.80
22161;DHT22;49035;48.812;11.762;2023-05-31T06:45:13;23.50;50.60
22161;DHT22;49035;48.812;11.762;2023-05-31T06:47:38;23.20;52.40
22161;DHT22;49035;48.812;11.762;2023-05-31T06:50:04;23.10;53.80
22161;DHT22;49035;48.812;11.762;2023-05-31T06:52:30;23.40;51.40
22161;DHT22;49035;48.812;11.762;2023-05-31T06:54:55;23.10;52.40
22161;DHT22;49035;48.812;11.762;2023-05-31T06:57:21;23.20;51.30
22161;DHT22;49035;48.812;11.762;2023-05-31T06:59:46;23.30;52.10
22161;DHT22;49035;48.812;11.762;2023-05-31T07:02:12;23.30;50.60
22161;DHT22;49035;48.812;11.762;2023-05-31T07:04:38;23.10;50.00
22161;DHT22;49035;48.812;11.762;2023-05-31T07:07:03;23.00;51.10
22161;DHT22;49035;48.812;11.762;2023-05-31T07:09:30;22.80;51.10
22161;DHT22;49035;48.812;11.762;2023-05-31T07:11:56;22.80;51.50
22161;DHT22;49035;48.812;11.762;2023-05-31T07:14:21;23.00;51.70
22161;DHT22;49035;48.812;11.762;2023-05-31T07:16:48;22.80;50.10
22161;DHT22;49035;48.812;11.762;2023-05-31T07:19:14;22.20;49.90
22161;DHT22;49035;48.812;11.762;2023-05-31T07:21:39;22.00;51.20
22161;DHT22;49035;48.812;11.762;2023-05-31T07:24:05;22.00;51.10
22161;DHT22;49035;48.812;11.762;2023-05-31T07:26:31;22.00;51.60
22161;DHT22;49035;48.812;11.762;2023-05-31T07:28:57;22.50;51.20
22161;DHT22;49035;48.812;11.762;2023-05-31T07:31:22;22.60;51.40
22161;DHT22;49035;48.812;11.762;2023-05-31T07:33:48;22.60;54.20
22161;DHT22;49035;48.812;11.762;2023-05-31T07:36:14;22.90;50.20
22161;DHT22;49035;48.812;11.762;2023-05-31T07:38:41;22.90;51.40
22161;DHT22;49035;48.812;11.762;2023-05-31T07:41:06;22.90;50.40
22161;DHT22;49035;48.812;11.762;2023-05-31T07:43:32;22.60;51.10
22161;DHT22;49035;48.812;11.762;2023-05-31T07:46:00;22.40;53.20
22161;DHT22;49035;48.812;11.762;2023-05-31T07:48:25;22.80;51.90
22161;DHT22;49035;48.812;11.762;2023-05-31T07:50:51;22.80;51.90
22161;DHT22;49035;48.812;11.762;2023-05-31T07:53:17;23.10;51.00
22161;DHT22;49035;48.812;11.762;2023-05-31T07:55:43;23.30;48.90
22161;DHT22;49035;48.812;11.762;2023-05-31T07:58:09;23.40;51.60
22161;DHT22;49035;48.812;11.762;2023-05-31T08:00:41;23.70;50.30
22161;DHT22;49035;48.812;11.762;2023-05-31T08:03:06;23.70;49.20
22161;DHT22;49035;48.812;11.762;2023-05-31T08:05:32;23.60;53.30
22161;DHT22;49035;48.812;11.762;2023-05-31T08:07:58;23.40;49.40
22161;DHT22;49035;48.812;11.762;2023-05-31T08:10:24;23.00;50.60
22161;DHT22;49035;48.812;11.762;2023-05-31T08:12:50;22.60;50.40
22161;DHT22;49035;48.812;11.762;2023-05-31T08:15:16;22.10;50.50
22161;DHT22;49035;48.812;11.762;2023-05-31T08:17:41;22.30;52.10
22161;DHT22;49035;48.812;11.762;2023-05-31T08:20:10;22.40;51.70
22161;DHT22;49035;48.812;11.762;2023-05-31T08:22:36;22.40;50.90
22161;DHT22;49035;48.812;11.762;2023-05-31T08:25:01;22.60;51.60
22161;DHT22;49035;48.812;11.762;2023-05-31T08:27:27;22.90;53.30
22161;DHT22;49035;48.812;11.762;2023-05-31T08:29:53;23.20;50.70
22161;DHT22;49035;48.812;11.762;2023-05-31T08:32:19;23.70;50.60
22161;DHT22;49035;48.812;11.762;2023-05-31T08:34:45;23.90;49.70
22161;DHT22;49035;48.812;11.762;2023-05-31T08:37:12;23.80;52.00
22161;DHT22;49035;48.812;11.762;2023-05-31T08:39:37;23.90;50.50
22161;DHT22;49035;48.812;11.762;2023-05-31T08:42:04;23.90;49.50
22161;DHT22;49035;48.812;11.762;2023-05-31T08:44:32;23.40;50.80
22161;DHT22;49035;48.812;11.762;2023-05-31T08:49:31;23.60;50.30
22161;DHT22;49035;48.812;11.762;2023-05-31T08:51:59;23.30;50.70
22161;DHT22;49035;48.812;11.762;2023-05-31T08:54:24;23.30;53.00
22161;DHT22;49035;48.812;11.762;2023-05-31T08:56:51;23.10;50.90
22161;DHT22;49035;48.812;11.762;2023-05-31T08:59:17;23.10;53.20
22161;DHT22;49035;48.812;11.762;2023-05-31T09:01:43;23.30;50.80
22161;DHT22;49035;48.812;11.762;2023-05-31T09:04:09;23.50;54.30
22161;DHT22;49035;48.812;11.762;2023-05-31T09:06:36;23.70;51.00
22161;DHT22;49035;48.812;11.762;2023-05-31T09:09:02;23.50;50.80
22161;DHT22;49035;48.812;11.762;2023-05-31T09:11:28;23.60;51.10
22161;DHT22;49035;48.812;11.762;2023-05-31T09:13:54;23.40;50.90
22161;DHT22;49035;48.812;11.762;2023-05-31T09:16:21;23.30;51.50
22161;DHT22;49035;48.812;11.762;2023-05-31T09:18:47;23.30;51.80
22161;DHT22;49035;48.812;11.762;2023-05-31T09:21:13;23.50;50.00
22161;DHT22;49035;48.812;11.762;2023-05-31T09:26:18;24.00;51.30
22161;DHT22;49035;48.812;11.762;2023-05-31T09:28:51;24.10;48.20
22161;DHT22;49035;48.812;11.762;2023-05-31T09:31:18;24.50;50.00
22161;DHT22;49035;48.812;11.762;2023-05-31T09:33:48;24.80;47.30
22161;DHT22;49035;48.812;11.762;2023-05-31T09:36:26;24.60;47.10
22161;DHT22;49035;48.812;11.762;2023-05-31T09:39:03;24.40;46.60
22161;DHT22;49035;48.812;11.762;2023-05-31T09:41:31;24.40;46.80
22161;DHT22;49035;48.812;11.762;2023-05-31T09:43:57;24.00;45.90
22161;DHT22;49035;48.812;11.762;2023-05-31T09:46:24;24.00;48.70
22161;DHT22;49035;48.812;11.762;2023-05-31T09:48:58;24.50;48.10
22161;DHT22;49035;48.812;11.762;2023-05-31T09:51:24;24.20;48.50
22161;DHT22;49035;48.812;11.762;2023-05-31T09:53:50;24.40;47.50
22161;DHT22;49035;48.812;11.762;2023-05-31T09:56:21;24.30;48.50
22161;DHT22;49035;48.812;11.762;2023-05-31T09:58:50;24.70;47.80
22161;DHT22;49035;48.812;11.762;2023-05-31T10:01:17;25.10;47.70
22161;DHT22;49035;48.812;11.762;2023-05-31T10:03:43;25.00;46.80
22161;DHT22;49035;48.812;11.762;2023-05-31T10:06:09;25.00;47.80
22161;DHT22;49035;48.812;11.762;2023-05-31T10:08:37;25.60;45.80
22161;DHT22;49035;48.812;11.762;2023-05-31T10:11:03;25.80;48.90
22161;DHT22;49035;48.812;11.762;2023-05-31T10:13:30;26.10;46.50
22161;DHT22;49035;48.812;11.762;2023-05-31T10:16:04;25.70;45.60
22161;DHT22;49035;48.812;11.762;2023-05-31T10:18:32;25.80;49.00
22161;DHT22;49035;48.812;11.762;2023-05-31T10:21:19;25.80;46.80
22161;DHT22;49035;48.812;11.762;2023-05-31T10:23:55;25.60;49.30
22161;DHT22;49035;48.812;11.762;2023-05-31T10:26:22;25.60;48.30
22161;DHT22;49035;48.812;11.762;2023-05-31T10:28:56;24.90;47.80
22161;DHT22;49035;48.812;11.762;2023-05-31T10:31:29;24.50;49.30
22161;DHT22;49035;48.812;11.762;2023-05-31T10:34:21;24.80;47.80
22161;DHT22;49035;48.812;11.762;2023-05-31T10:36:48;24.90;49.20
22161;DHT22;49035;48.812;11.762;2023-05-31T10:39:31;24.80;48.70
22161;DHT22;49035;48.812;11.762;2023-05-31T10:42:12;25.30;49.50
22161;DHT22;49035;48.812;11.762;2023-05-31T10:44:50;25.90;48.20
22161;DHT22;49035;48.812;11.762;2023-05-31T10:47:22;25.60;44.00
22161;DHT22;49035;48.812;11.762;2023-05-31T10:49:52;24.90;45.80
22161;DHT22;49035;48.812;11.762;2023-05-31T10:52:19;24.90;49.50
22161;DHT22;49035;48.812;11.762;2023-05-31T10:54:45;25.50;49.00
22161;DHT22;49035;48.812;11.762;2023-05-31T10:57:12;26.10;46.90
22161;DHT22;49035;48.812;11.762;2023-05-31T10:59:42;26.40;47.00
22161;DHT22;49035;48.812;11.762;2023-05-31T11:02:10;26.30;45.60
22161;DHT22;49035;48.812;11.762;2023-05-31T11:04:36;26.30;47.10
22161;DHT22;49035;48.812;11.762;2023-05-31T11:07:18;26.30;43.50
22161;DHT22;49035;48.812;11.762;2023-05-31T11:09:57;26.60;45.30
22161;DHT22;49035;48.812;11.762;2023-05-31T11:12:35;25.90;43.70
22161;DHT22;49035;48.812;11.762;2023-05-31T11:15:03;25.30;43.80
22161;DHT22;49035;48.812;11.762;2023-05-31T11:17:38;25.00;44.40
22161;DHT22;49035;48.812;11.762;2023-05-31T11:20:04;25.00;47.40
22161;DHT22;49035;48.812;11.762;2023-05-31T11:22:31;25.30;47.60
22161;DHT22;49035;48.812;11.762;2023-05-31T11:24:57;25.60;46.00
22161;DHT22;49035;48.812;11.762;2023-05-31T11:27:37;25.70;45.30
22161;DHT22;49035;48.812;11.762;2023-05-31T11:30:23;25.70;46.10
22161;DHT22;49035;48.812;11.762;2023-05-31T11:32:59;25.20;44.50
22161;DHT22;49035;48.812;11.762;2023-05-31T11:35:25;25.10;46.10
22161;DHT22;49035;48.812;11.762;2023-05-31T11:37:59;25.40;46.80
22161;DHT22;49035;48.812;11.762;2023-05-31T11:40:25;25.60;45.70
22161;DHT22;49035;48.812;11.762;2023-05-31T11:42:52;25.70;44.70
22161;DHT22;49035;48.812;11.762;2023-05-31T11:45:22;25.70;44.60
22161;DHT22;49035;48.812;11.762;2023-05-31T11:50:32;25.90;43.70
22161;DHT22;49035;48.812;11.762;2023-05-31T11:53:05;26.10;46.30
22161;DHT22;49035;48.812;11.762;2023-05-31T11:55:32;26.00;44.50
22161;DHT22;49035;48.812;11.762;2023-05-31T11:57:58;25.90;44.10
22161;DHT22;49035;48.812;11.762;2023-05-31T12:00:24;25.60;43.50
22161;DHT22;49035;48.812;11.762;2023-05-31T12:02:55;25.70;44.70
22161;DHT22;49035;48.812;11.762;2023-05-31T12:05:27;25.70;45.60
22161;DHT22;49035;48.812;11.762;2023-05-31T12:07:54;26.10;44.90
22161;DHT22;49035;48.812;11.762;2023-05-31T12:10:21;26.20;43.60
22161;DHT22;49035;48.812;11.762;2023-05-31T12:12:47;26.20;45.00
22161;DHT22;49035;48.812;11.762;2023-05-31T12:15:12;25.90;43.80
22161;DHT22;49035;48.812;11.762;2023-05-31T12:17:39;26.00;44.20
22161;DHT22;49035;48.812;11.762;2023-05-31T12:20:05;26.20;43.60
22161;DHT22;49035;48.812;11.762;2023-05-31T12:22:31;26.10;43.20
22161;DHT22;49035;48.812;11.762;2023-05-31T12:24:57;25.80;42.20
22161;DHT22;49035;48.812;11.762;2023-05-31T12:27:24;25.80;46.50
22161;DHT22;49035;48.812;11.762;2023-05-31T12:29:49;26.10;44.10
22161;DHT22;49035;48.812;11.762;2023-05-31T12:32:21;26.00;44.20
22161;DHT22;49035;48.812;11.762;2023-05-31T12:34:46;26.30;46.00
22161;DHT22;49035;48.812;11.762;2023-05-31T12:37:13;26.60;42.20
22161;DHT22;49035;48.812;11.762;2023-05-31T12:39:39;26.70;43.50
22161;DHT22;49035;48.812;11.762;2023-05-31T12:42:05;26.60;42.40
22161;DHT22;49035;48.812;11.762;2023-05-31T12:44:34;27.10;45.10
22161;DHT22;49035;48.812;11.762;2023-05-31T12:47:07;27.50;42.50
22161;DHT22;49035;48.812;11.762;2023-05-31T12:49:34;27.50;41.80
22161;DHT22;49035;48.812;11.762;2023-05-31T12:52:14;27.50;42.80
22161;DHT22;49035;48.812;11.762;2023-05-31T12:54:40;27.40;43.20
22161;DHT22;49035;48.812;11.762;2023-05-31T12:57:07;26.60;44.00
22161;DHT22;49035;48.812;11.762;2023-05-31T12:59:36;26.30;43.80
22161;DHT22;49035;48.812;11.762;2023-05-31T13:02:04;26.60;43.20
22161;DHT22;49035;48.812;11.762;2023-05-31T13:04:30;27.00;44.60
22161;DHT22;49035;48.812;11.762;2023-05-31T13:06:55;27.20;44.20
22161;DHT22;49035;48.812;11.762;2023-05-31T13:09:23;27.10;43.00
22161;DHT22;49035;48.812;11.762;2023-05-31T13:11:49;27.40;44.60
22161;DHT22;49035;48.812;11.762;2023-05-31T13:14:18;27.70;44.50
22161;DHT22;49035;48.812;11.762;2023-05-31T13:16:44;28.10;43.80
22161;DHT22;49035;48.812;11.762;2023-05-31T13:19:11;28.20;42.50
22161;DHT22;49035;48.812;11.762;2023-05-31T13:21:38;28.40;41.30
22161;DHT22;49035;48.812;11.762;2023-05-31T13:24:05;28.20;42.90
22161;DHT22;49035;48.812;11.762;2023-05-31T13:26:32;28.20;41.90
22161;DHT22;49035;48.812;11.762;2023-05-31T13:28:58;27.90;42.80
22161;DHT22;49035;48.812;11.762;2023-05-31T13:31:24;28.00;43.40
22161;DHT22;49035;48.812;11.762;2023-05-31T13:33:51;28.00;42.70
22161;DHT22;49035;48.812;11.762;2023-05-31T13:36:18;28.20;43.40
22161;DHT22;49035;48.812;11.762;2023-05-31T13:38:45;28.50;44.70
22161;DHT22;49035;48.812;11.762;2023-05-31T13:41:11;28.50;43.60
22161;DHT22;49035;48.812;11.762;2023-05-31T13:43:36;28.40;43.70
22161;DHT22;49035;48.812;11.762;2023-05-31T13:46:05;28.50;42.30
22161;DHT22;49035;48.812;11.762;2023-05-31T13:48:38;27.80;42.70
22161;DHT22;49035;48.812;11.762;2023-05-31T13:51:04;27.80;43.70
22161;DHT22;49035;48.812;11.762;2023-05-31T13:53:30;28.10;42.90
22161;DHT22;49035;48.812;11.762;2023-05-31T13:55:56;28.00;44.40
22161;DHT22;49035;48.812;11.762;2023-05-31T13:58:22;28.10;41.10
22161;DHT22;49035;48.812;11.762;2023-05-31T14:00:48;27.90;41.50
22161;DHT22;49035;48.812;11.762;2023-05-31T14:03:14;27.50;41.60
22161;DHT22;49035;48.812;11.762;2023-05-31T14:05:40;27.80;46.70
22161;DHT22;49035;48.812;11.762;2023-05-31T14:08:06;28.40;44.20
22161;DHT22;49035;48.812;11.762;2023-05-31T14:10:33;28.80;41.80
22161;DHT22;49035;48.812;11.762;2023-05-31T14:12:58;29.20;43.20
22161;DHT22;49035;48.812;11.762;2023-05-31T14:15:24;29.10;39.20
22161;DHT22;49035;48.812;11.762;2023-05-31T14:17:49;28.40;40.60
22161;DHT22;49035;48.812;11.762;2023-05-31T14:20:15;28.70;42.20
22161;DHT22;49035;48.812;11.762;2023-05-31T14:22:41;28.90;43.30
22161;DHT22;49035;48.812;11.762;2023-05-31T14:25:07;29.20;40.60
22161;DHT22;49035;48.812;11.762;2023-05-31T14:27:33;29.40;39.80
22161;DHT22;49035;48.812;11.762;2023-05-31T14:29:58;29.70;38.10
22161;DHT22;49035;48.812;11.762;2023-05-31T14:32:24;29.80;40.80
22161;DHT22;49035;48.812;11.762;2023-05-31T14:34:49;29.10;40.80
22161;DHT22;49035;48.812;11.762;2023-05-31T14:37:16;29.00;41.00
22161;DHT22;49035;48.812;11.762;2023-05-31T14:39:41;28.40;41.00
22161;DHT22;49035;48.812;11.762;2023-05-31T14:42:09;28.40;42.20
22161;DHT22;49035;48.812;11.762;2023-05-31T14:44:34;28.40;41.50
22161;DHT22;49035;48.812;11.762;2023-05-31T14:47:01;28.10;43.50
22161;DHT22;49035;48.812;11.762;2023-05-31T14:49:27;27.60;41.90
22161;DHT22;49035;48.812;11.762;2023-05-31T14:51:52;27.70;43.10
22161;DHT22;49035;48.812;11.762;2023-05-31T14:54:18;28.00;43.60
22161;DHT22;49035;48.812;11.762;2023-05-31T14:56:45;28.20;41.80
22161;DHT22;49035;48.812;11.762;2023-05-31T14:59:11;28.30;42.60
22161;DHT22;49035;48.812;11.762;2023-05-31T15:01:37;28.50;43.30
22161;DHT22;49035;48.812;11.762;2023-05-31T15:04:09;29.10;41.80
22161;DHT22;49035;48.812;11.762;2023-05-31T15:06:35;29.00;40.30
22161;DHT22;49035;48.812;11.762;2023-05-31T15:09:05;28.90;41.00
22161;DHT22;49035;48.812;11.762;2023-05-31T15:11:33;28.60;40.70
22161;DHT22;49035;48.812;11.762;2023-05-31T15:13:58;28.80;42.80
22161;DHT22;49035;48.812;11.762;2023-05-31T15:16:24;28.90;40.70
22161;DHT22;49035;48.812;11.762;2023-05-31T15:18:51;29.00;41.10
22161;DHT22;49035;48.812;11.762;2023-05-31T15:21:17;29.70;41.20
22161;DHT22;49035;48.812;11.762;2023-05-31T15:23:42;30.60;40.80
22161;DHT22;49035;48.812;11.762;2023-05-31T15:26:08;31.00;37.90
22161;DHT22;49035;48.812;11.762;2023-05-31T15:28:34;31.00;37.60
22161;DHT22;49035;48.812;11.762;2023-05-31T15:31:00;30.80;39.70
22161;DHT22;49035;48.812;11.762;2023-05-31T15:33:37;29.60;38.90